0MI3 weather

Kelleys Airport
Grayling, Michigan, United States

Public forecast

Using degrees Fahrenheit for public forecast. Weather courtesy of forecast.io.

Closest aviation weather report (METAR) to Kelleys Airport

Closest report is Grayling Army Air Field, 10.9 nm (20.1 km) WNW. Retrieved 2019/10/24 03:29 UTC (0 seconds ago):

KGOV 240329Z AUTO 00000KT 9SM -RA FEW043 OVC060 02/02 A2998 RMK AO2 RAB29 SLP167

Closest aviation forecast (TAF) to Kelleys Airport

Closest forecast is Cherry Capital Airport, 47.3 nm (87.7 km) W. Retrieved 2019-10-24 00:22 UTC (3 hours ago):

TAF KTVC 232320Z 2400/2424 23006KT P6SM VCSH BKN060 FM240400 VRB04KT 6SM -SHRA OVC030 FM240900 30006KT P6SM VCSH OVC035 FM241200 30009KT P6SM BKN050 FM241400 29011G20KT P6SM OVC030 FM241900 28011KT P6SM OVC035